Appleby-in-Westmorland, United Kingdom
Current Conditions -  °F | °C
As of 7:50 AM on Thursday 29 Jan 2015 (Local Time) from EGOM Reporting Station
Light Snow Light Snow  
Wind Chill: 14°   Ceiling: 200
Heat Index: 28°   Visibility: 4mi
Dew Point: 28°   Wind: 24mph
Humidity: 100%   Direction: 250°WSW
Pressure: 28.82"   Gusts: NA
Location:  54.58°N, 2.5°W
Report Text: EGOM 290750Z AUTO 25021KT 6000 -SN BKN002/// M02/M02 Q0976
Loading
Personal Weather Stations






























Interactive Weather Map New forecast layout! Learn more

10-Day Weather Forecast

Advertisements
Track Severe Weather on mobile